sensor_id;sensor_type;location;lat;lon;timestamp;P1;durP1;ratioP1;P2;durP2;ratioP2
18138;SDS011;9195;53.176;9.486;2022-11-09T00:01:13;8.40;;;8.10;;
18138;SDS011;9195;53.176;9.486;2022-11-09T00:03:39;8.77;;;8.40;;
18138;SDS011;9195;53.176;9.486;2022-11-09T00:06:04;8.80;;;8.40;;
18138;SDS011;9195;53.176;9.486;2022-11-09T00:08:30;8.93;;;8.53;;
18138;SDS011;9195;53.176;9.486;2022-11-09T00:11:06;8.97;;;8.57;;
18138;SDS011;9195;53.176;9.486;2022-11-09T00:13:36;8.60;;;8.30;;
18138;SDS011;9195;53.176;9.486;2022-11-09T00:16:07;8.63;;;8.33;;
18138;SDS011;9195;53.176;9.486;2022-11-09T00:18:34;8.40;;;8.10;;
18138;SDS011;9195;53.176;9.486;2022-11-09T00:21:08;8.50;;;8.20;;
18138;SDS011;9195;53.176;9.486;2022-11-09T00:23:35;8.33;;;8.03;;
18138;SDS011;9195;53.176;9.486;2022-11-09T00:26:01;8.37;;;8.07;;
18138;SDS011;9195;53.176;9.486;2022-11-09T00:28:28;8.40;;;8.10;;
18138;SDS011;9195;53.176;9.486;2022-11-09T00:31:01;8.17;;;7.87;;
18138;SDS011;9195;53.176;9.486;2022-11-09T00:33:31;8.40;;;8.10;;
18138;SDS011;9195;53.176;9.486;2022-11-09T00:35:57;8.30;;;8.00;;
18138;SDS011;9195;53.176;9.486;2022-11-09T00:38:23;8.00;;;7.70;;
18138;SDS011;9195;53.176;9.486;2022-11-09T00:40:49;8.50;;;8.20;;
18138;SDS011;9195;53.176;9.486;2022-11-09T00:43:14;7.97;;;7.67;;
18138;SDS011;9195;53.176;9.486;2022-11-09T00:45:40;8.20;;;7.90;;
18138;SDS011;9195;53.176;9.486;2022-11-09T00:48:06;8.13;;;7.83;;
18138;SDS011;9195;53.176;9.486;2022-11-09T00:50:32;7.93;;;7.63;;
18138;SDS011;9195;53.176;9.486;2022-11-09T00:52:58;7.90;;;7.60;;
18138;SDS011;9195;53.176;9.486;2022-11-09T00:55:25;8.10;;;7.80;;
18138;SDS011;9195;53.176;9.486;2022-11-09T00:57:51;7.70;;;7.40;;
18138;SDS011;9195;53.176;9.486;2022-11-09T01:00:17;8.20;;;7.90;;
18138;SDS011;9195;53.176;9.486;2022-11-09T01:02:44;8.50;;;8.20;;
18138;SDS011;9195;53.176;9.486;2022-11-09T01:05:10;7.90;;;7.60;;
18138;SDS011;9195;53.176;9.486;2022-11-09T01:07:36;8.17;;;7.87;;
18138;SDS011;9195;53.176;9.486;2022-11-09T01:10:03;8.50;;;8.20;;
18138;SDS011;9195;53.176;9.486;2022-11-09T01:12:30;8.17;;;7.87;;
18138;SDS011;9195;53.176;9.486;2022-11-09T01:14:56;8.30;;;8.00;;
18138;SDS011;9195;53.176;9.486;2022-11-09T01:17:22;8.30;;;8.00;;
18138;SDS011;9195;53.176;9.486;2022-11-09T01:19:48;7.80;;;7.50;;
18138;SDS011;9195;53.176;9.486;2022-11-09T01:22:13;8.17;;;7.87;;
18138;SDS011;9195;53.176;9.486;2022-11-09T01:24:39;8.20;;;7.90;;
18138;SDS011;9195;53.176;9.486;2022-11-09T01:27:05;8.33;;;8.03;;
18138;SDS011;9195;53.176;9.486;2022-11-09T01:29:30;8.03;;;7.73;;
18138;SDS011;9195;53.176;9.486;2022-11-09T01:31:56;8.30;;;8.00;;
18138;SDS011;9195;53.176;9.486;2022-11-09T01:34:22;7.73;;;7.43;;
18138;SDS011;9195;53.176;9.486;2022-11-09T01:36:50;8.30;;;8.00;;
18138;SDS011;9195;53.176;9.486;2022-11-09T01:39:16;8.43;;;8.13;;
18138;SDS011;9195;53.176;9.486;2022-11-09T01:41:43;8.30;;;8.00;;
18138;SDS011;9195;53.176;9.486;2022-11-09T01:44:10;8.40;;;8.10;;
18138;SDS011;9195;53.176;9.486;2022-11-09T01:46:59;8.50;;;8.20;;
18138;SDS011;9195;53.176;9.486;2022-11-09T01:49:37;8.17;;;7.87;;
18138;SDS011;9195;53.176;9.486;2022-11-09T01:52:16;8.17;;;7.87;;
18138;SDS011;9195;53.176;9.486;2022-11-09T01:54:47;8.00;;;7.70;;
18138;SDS011;9195;53.176;9.486;2022-11-09T01:57:20;8.00;;;7.70;;
18138;SDS011;9195;53.176;9.486;2022-11-09T01:59:51;8.13;;;7.83;;
18138;SDS011;9195;53.176;9.486;2022-11-09T02:02:23;7.90;;;7.60;;
18138;SDS011;9195;53.176;9.486;2022-11-09T02:04:50;8.00;;;7.70;;
18138;SDS011;9195;53.176;9.486;2022-11-09T02:07:21;8.20;;;7.90;;
18138;SDS011;9195;53.176;9.486;2022-11-09T02:09:52;8.33;;;8.03;;
18138;SDS011;9195;53.176;9.486;2022-11-09T02:12:22;7.50;;;7.20;;
18138;SDS011;9195;53.176;9.486;2022-11-09T02:14:49;7.50;;;7.20;;
18138;SDS011;9195;53.176;9.486;2022-11-09T02:17:17;7.37;;;7.07;;
18138;SDS011;9195;53.176;9.486;2022-11-09T02:19:44;7.70;;;7.40;;
18138;SDS011;9195;53.176;9.486;2022-11-09T02:22:09;7.80;;;7.50;;
18138;SDS011;9195;53.176;9.486;2022-11-09T02:24:35;8.33;;;8.03;;
18138;SDS011;9195;53.176;9.486;2022-11-09T02:27:01;7.93;;;7.63;;
18138;SDS011;9195;53.176;9.486;2022-11-09T02:29:34;8.03;;;7.73;;
18138;SDS011;9195;53.176;9.486;2022-11-09T02:32:12;8.30;;;8.00;;
18138;SDS011;9195;53.176;9.486;2022-11-09T02:34:41;8.50;;;8.20;;
18138;SDS011;9195;53.176;9.486;2022-11-09T02:37:07;8.40;;;8.10;;
18138;SDS011;9195;53.176;9.486;2022-11-09T02:39:33;8.30;;;8.00;;
18138;SDS011;9195;53.176;9.486;2022-11-09T02:41:59;8.47;;;8.17;;
18138;SDS011;9195;53.176;9.486;2022-11-09T02:44:29;9.00;;;8.60;;
18138;SDS011;9195;53.176;9.486;2022-11-09T02:47:00;8.30;;;8.00;;
18138;SDS011;9195;53.176;9.486;2022-11-09T02:49:26;8.47;;;8.17;;
18138;SDS011;9195;53.176;9.486;2022-11-09T02:51:52;8.47;;;8.17;;
18138;SDS011;9195;53.176;9.486;2022-11-09T02:54:17;8.67;;;8.37;;
18138;SDS011;9195;53.176;9.486;2022-11-09T02:56:43;8.10;;;7.80;;
18138;SDS011;9195;53.176;9.486;2022-11-09T02:59:08;8.03;;;7.73;;
18138;SDS011;9195;53.176;9.486;2022-11-09T03:01:34;8.13;;;7.83;;
18138;SDS011;9195;53.176;9.486;2022-11-09T03:04:00;7.90;;;7.60;;
18138;SDS011;9195;53.176;9.486;2022-11-09T03:06:25;8.07;;;7.77;;
18138;SDS011;9195;53.176;9.486;2022-11-09T03:08:59;8.13;;;7.83;;
18138;SDS011;9195;53.176;9.486;2022-11-09T03:11:26;8.13;;;7.83;;
18138;SDS011;9195;53.176;9.486;2022-11-09T03:13:51;8.40;;;8.10;;
18138;SDS011;9195;53.176;9.486;2022-11-09T03:16:17;8.20;;;7.90;;
18138;SDS011;9195;53.176;9.486;2022-11-09T03:18:42;8.20;;;7.90;;
18138;SDS011;9195;53.176;9.486;2022-11-09T03:21:08;8.27;;;7.97;;
18138;SDS011;9195;53.176;9.486;2022-11-09T03:23:34;8.37;;;8.07;;
18138;SDS011;9195;53.176;9.486;2022-11-09T03:25:59;8.33;;;8.03;;
18138;SDS011;9195;53.176;9.486;2022-11-09T03:28:25;8.17;;;7.87;;
18138;SDS011;9195;53.176;9.486;2022-11-09T03:30:50;8.30;;;8.00;;
18138;SDS011;9195;53.176;9.486;2022-11-09T03:33:16;8.47;;;8.17;;
18138;SDS011;9195;53.176;9.486;2022-11-09T03:35:42;8.20;;;7.90;;
18138;SDS011;9195;53.176;9.486;2022-11-09T03:38:08;7.90;;;7.60;;
18138;SDS011;9195;53.176;9.486;2022-11-09T03:40:33;8.43;;;8.13;;
18138;SDS011;9195;53.176;9.486;2022-11-09T03:42:59;7.87;;;7.57;;
18138;SDS011;9195;53.176;9.486;2022-11-09T03:45:25;7.83;;;7.53;;
18138;SDS011;9195;53.176;9.486;2022-11-09T03:47:52;7.97;;;7.67;;
18138;SDS011;9195;53.176;9.486;2022-11-09T03:50:23;7.83;;;7.53;;
18138;SDS011;9195;53.176;9.486;2022-11-09T03:52:50;7.40;;;7.10;;
18138;SDS011;9195;53.176;9.486;2022-11-09T03:55:15;7.70;;;7.40;;
18138;SDS011;9195;53.176;9.486;2022-11-09T03:57:42;7.73;;;7.43;;
18138;SDS011;9195;53.176;9.486;2022-11-09T04:00:10;7.87;;;7.57;;
18138;SDS011;9195;53.176;9.486;2022-11-09T04:02:37;7.83;;;7.53;;
18138;SDS011;9195;53.176;9.486;2022-11-09T04:05:03;8.00;;;7.70;;
18138;SDS011;9195;53.176;9.486;2022-11-09T04:07:29;7.50;;;7.20;;
18138;SDS011;9195;53.176;9.486;2022-11-09T04:09:55;7.70;;;7.40;;
18138;SDS011;9195;53.176;9.486;2022-11-09T04:12:21;7.67;;;7.37;;
18138;SDS011;9195;53.176;9.486;2022-11-09T04:14:47;7.70;;;7.40;;
18138;SDS011;9195;53.176;9.486;2022-11-09T04:17:12;7.60;;;7.30;;
18138;SDS011;9195;53.176;9.486;2022-11-09T04:19:38;7.87;;;7.57;;
18138;SDS011;9195;53.176;9.486;2022-11-09T04:22:03;7.73;;;7.43;;
18138;SDS011;9195;53.176;9.486;2022-11-09T04:24:29;8.20;;;7.90;;
18138;SDS011;9195;53.176;9.486;2022-11-09T04:26:55;9.13;;;8.73;;
18138;SDS011;9195;53.176;9.486;2022-11-09T04:29:20;9.10;;;8.70;;
18138;SDS011;9195;53.176;9.486;2022-11-09T04:31:49;8.80;;;8.40;;
18138;SDS011;9195;53.176;9.486;2022-11-09T04:34:15;8.50;;;8.20;;
18138;SDS011;9195;53.176;9.486;2022-11-09T04:36:42;8.67;;;8.37;;
18138;SDS011;9195;53.176;9.486;2022-11-09T04:39:08;8.30;;;8.00;;
18138;SDS011;9195;53.176;9.486;2022-11-09T04:41:34;8.17;;;7.87;;
18138;SDS011;9195;53.176;9.486;2022-11-09T04:43:59;8.07;;;7.77;;
18138;SDS011;9195;53.176;9.486;2022-11-09T04:46:25;8.47;;;8.17;;
18138;SDS011;9195;53.176;9.486;2022-11-09T04:48:51;7.80;;;7.50;;
18138;SDS011;9195;53.176;9.486;2022-11-09T04:51:17;7.87;;;7.57;;
18138;SDS011;9195;53.176;9.486;2022-11-09T04:53:43;8.20;;;7.90;;
18138;SDS011;9195;53.176;9.486;2022-11-09T04:56:09;8.03;;;7.73;;
18138;SDS011;9195;53.176;9.486;2022-11-09T04:58:35;7.20;;;6.90;;
18138;SDS011;9195;53.176;9.486;2022-11-09T05:01:11;7.30;;;7.00;;
18138;SDS011;9195;53.176;9.486;2022-11-09T05:03:37;7.30;;;7.00;;
18138;SDS011;9195;53.176;9.486;2022-11-09T05:06:04;7.77;;;7.47;;
18138;SDS011;9195;53.176;9.486;2022-11-09T05:08:50;7.87;;;7.57;;
18138;SDS011;9195;53.176;9.486;2022-11-09T05:11:19;7.73;;;7.43;;
18138;SDS011;9195;53.176;9.486;2022-11-09T05:13:45;8.50;;;8.20;;
18138;SDS011;9195;53.176;9.486;2022-11-09T05:16:11;8.27;;;7.97;;
18138;SDS011;9195;53.176;9.486;2022-11-09T05:18:38;8.50;;;8.20;;
18138;SDS011;9195;53.176;9.486;2022-11-09T05:21:03;8.30;;;8.00;;
18138;SDS011;9195;53.176;9.486;2022-11-09T05:23:29;8.53;;;8.23;;
18138;SDS011;9195;53.176;9.486;2022-11-09T05:26:14;8.30;;;8.00;;
18138;SDS011;9195;53.176;9.486;2022-11-09T05:28:39;8.80;;;8.47;;
18138;SDS011;9195;53.176;9.486;2022-11-09T05:31:05;8.60;;;8.30;;
18138;SDS011;9195;53.176;9.486;2022-11-09T05:33:31;8.30;;;8.00;;
18138;SDS011;9195;53.176;9.486;2022-11-09T05:35:57;8.90;;;8.50;;
18138;SDS011;9195;53.176;9.486;2022-11-09T05:38:23;8.30;;;8.00;;
18138;SDS011;9195;53.176;9.486;2022-11-09T05:40:49;8.00;;;7.70;;
18138;SDS011;9195;53.176;9.486;2022-11-09T05:43:16;8.50;;;8.20;;
18138;SDS011;9195;53.176;9.486;2022-11-09T05:45:42;8.20;;;7.90;;
18138;SDS011;9195;53.176;9.486;2022-11-09T05:48:08;8.30;;;8.00;;
18138;SDS011;9195;53.176;9.486;2022-11-09T05:50:35;8.40;;;8.10;;
18138;SDS011;9195;53.176;9.486;2022-11-09T05:53:02;8.33;;;8.03;;
18138;SDS011;9195;53.176;9.486;2022-11-09T05:55:27;7.90;;;7.60;;
18138;SDS011;9195;53.176;9.486;2022-11-09T05:57:53;7.60;;;7.30;;
18138;SDS011;9195;53.176;9.486;2022-11-09T06:00:19;6.80;;;6.50;;
18138;SDS011;9195;53.176;9.486;2022-11-09T06:02:45;7.63;;;7.33;;
18138;SDS011;9195;53.176;9.486;2022-11-09T06:05:10;9.33;;;8.93;;
18138;SDS011;9195;53.176;9.486;2022-11-09T06:07:36;9.10;;;8.70;;
18138;SDS011;9195;53.176;9.486;2022-11-09T06:10:02;9.60;;;9.20;;
18138;SDS011;9195;53.176;9.486;2022-11-09T06:12:29;10.17;;;9.77;;
18138;SDS011;9195;53.176;9.486;2022-11-09T06:14:54;10.00;;;9.60;;
18138;SDS011;9195;53.176;9.486;2022-11-09T06:17:20;10.47;;;10.07;;
18138;SDS011;9195;53.176;9.486;2022-11-09T06:19:46;9.93;;;9.53;;
18138;SDS011;9195;53.176;9.486;2022-11-09T06:22:11;10.03;;;9.63;;
18138;SDS011;9195;53.176;9.486;2022-11-09T06:24:37;9.90;;;9.50;;
18138;SDS011;9195;53.176;9.486;2022-11-09T06:27:03;9.90;;;9.50;;
18138;SDS011;9195;53.176;9.486;2022-11-09T06:29:29;10.00;;;9.60;;
18138;SDS011;9195;53.176;9.486;2022-11-09T06:31:54;9.80;;;9.40;;
18138;SDS011;9195;53.176;9.486;2022-11-09T06:34:20;9.77;;;9.37;;
18138;SDS011;9195;53.176;9.486;2022-11-09T06:36:46;9.77;;;9.37;;
18138;SDS011;9195;53.176;9.486;2022-11-09T06:39:11;9.50;;;9.10;;
18138;SDS011;9195;53.176;9.486;2022-11-09T06:41:37;9.10;;;8.70;;
18138;SDS011;9195;53.176;9.486;2022-11-09T06:44:03;9.60;;;9.20;;
18138;SDS011;9195;53.176;9.486;2022-11-09T06:46:29;8.50;;;8.20;;
18138;SDS011;9195;53.176;9.486;2022-11-09T06:48:58;9.40;;;9.00;;
18138;SDS011;9195;53.176;9.486;2022-11-09T06:51:24;9.33;;;8.93;;
18138;SDS011;9195;53.176;9.486;2022-11-09T06:53:50;9.43;;;9.03;;
18138;SDS011;9195;53.176;9.486;2022-11-09T06:56:16;9.57;;;9.17;;
18138;SDS011;9195;53.176;9.486;2022-11-09T06:58:41;9.27;;;8.87;;
18138;SDS011;9195;53.176;9.486;2022-11-09T07:01:11;9.80;;;9.40;;
18138;SDS011;9195;53.176;9.486;2022-11-09T07:03:39;10.30;;;9.90;;
18138;SDS011;9195;53.176;9.486;2022-11-09T07:06:06;9.80;;;9.40;;
18138;SDS011;9195;53.176;9.486;2022-11-09T07:08:33;9.50;;;9.10;;
18138;SDS011;9195;53.176;9.486;2022-11-09T07:11:06;9.07;;;8.67;;
18138;SDS011;9195;53.176;9.486;2022-11-09T07:13:37;10.00;;;9.60;;
18138;SDS011;9195;53.176;9.486;2022-11-09T07:16:03;10.60;;;10.20;;
18138;SDS011;9195;53.176;9.486;2022-11-09T07:18:30;9.70;;;9.30;;
18138;SDS011;9195;53.176;9.486;2022-11-09T07:20:56;9.87;;;9.47;;
18138;SDS011;9195;53.176;9.486;2022-11-09T07:23:22;9.77;;;9.37;;
18138;SDS011;9195;53.176;9.486;2022-11-09T07:25:47;10.43;;;10.03;;
18138;SDS011;9195;53.176;9.486;2022-11-09T07:28:13;9.83;;;9.43;;
18138;SDS011;9195;53.176;9.486;2022-11-09T07:30:39;10.17;;;9.77;;
18138;SDS011;9195;53.176;9.486;2022-11-09T07:33:12;10.57;;;10.17;;
18138;SDS011;9195;53.176;9.486;2022-11-09T07:35:39;10.50;;;10.10;;
18138;SDS011;9195;53.176;9.486;2022-11-09T07:38:05;10.53;;;10.13;;
18138;SDS011;9195;53.176;9.486;2022-11-09T07:40:32;10.53;;;10.13;;
18138;SDS011;9195;53.176;9.486;2022-11-09T07:42:58;10.17;;;9.77;;
18138;SDS011;9195;53.176;9.486;2022-11-09T07:45:26;10.20;;;9.80;;
18138;SDS011;9195;53.176;9.486;2022-11-09T07:48:00;10.40;;;10.00;;
18138;SDS011;9195;53.176;9.486;2022-11-09T07:50:28;10.63;;;10.23;;
18138;SDS011;9195;53.176;9.486;2022-11-09T07:52:54;11.10;;;10.60;;
18138;SDS011;9195;53.176;9.486;2022-11-09T07:55:21;10.50;;;10.10;;
18138;SDS011;9195;53.176;9.486;2022-11-09T07:57:47;9.80;;;9.40;;
18138;SDS011;9195;53.176;9.486;2022-11-09T08:00:13;10.20;;;9.80;;
18138;SDS011;9195;53.176;9.486;2022-11-09T08:02:39;11.70;;;11.20;;
18138;SDS011;9195;53.176;9.486;2022-11-09T08:05:05;11.50;;;11.00;;
18138;SDS011;9195;53.176;9.486;2022-11-09T08:07:31;11.77;;;11.27;;
18138;SDS011;9195;53.176;9.486;2022-11-09T08:09:58;11.80;;;11.30;;
18138;SDS011;9195;53.176;9.486;2022-11-09T08:12:24;11.73;;;11.23;;
18138;SDS011;9195;53.176;9.486;2022-11-09T08:14:49;12.43;;;11.93;;
18138;SDS011;9195;53.176;9.486;2022-11-09T08:17:15;12.20;;;11.70;;
18138;SDS011;9195;53.176;9.486;2022-11-09T08:19:40;12.03;;;11.53;;
18138;SDS011;9195;53.176;9.486;2022-11-09T08:22:06;12.20;;;11.70;;
18138;SDS011;9195;53.176;9.486;2022-11-09T08:24:32;11.97;;;11.47;;
18138;SDS011;9195;53.176;9.486;2022-11-09T08:26:57;12.20;;;11.70;;
18138;SDS011;9195;53.176;9.486;2022-11-09T08:29:23;11.77;;;11.27;;
18138;SDS011;9195;53.176;9.486;2022-11-09T08:31:49;11.93;;;11.43;;
18138;SDS011;9195;53.176;9.486;2022-11-09T08:34:15;11.90;;;11.40;;
18138;SDS011;9195;53.176;9.486;2022-11-09T08:36:41;11.70;;;11.20;;
18138;SDS011;9195;53.176;9.486;2022-11-09T08:39:07;12.60;;;12.10;;
18138;SDS011;9195;53.176;9.486;2022-11-09T08:41:34;12.63;;;12.13;;
18138;SDS011;9195;53.176;9.486;2022-11-09T08:43:59;12.30;;;11.80;;
18138;SDS011;9195;53.176;9.486;2022-11-09T08:46:25;12.30;;;11.80;;
18138;SDS011;9195;53.176;9.486;2022-11-09T08:48:51;13.27;;;12.67;;
18138;SDS011;9195;53.176;9.486;2022-11-09T08:51:16;12.93;;;12.33;;
18138;SDS011;9195;53.176;9.486;2022-11-09T08:53:42;13.30;;;12.70;;
18138;SDS011;9195;53.176;9.486;2022-11-09T08:56:08;13.23;;;12.63;;
18138;SDS011;9195;53.176;9.486;2022-11-09T08:58:35;13.77;;;13.17;;
18138;SDS011;9195;53.176;9.486;2022-11-09T09:01:00;13.90;;;13.30;;
18138;SDS011;9195;53.176;9.486;2022-11-09T09:03:31;13.80;;;13.20;;
18138;SDS011;9195;53.176;9.486;2022-11-09T09:05:56;13.90;;;13.30;;
18138;SDS011;9195;53.176;9.486;2022-11-09T09:08:22;14.10;;;13.50;;
18138;SDS011;9195;53.176;9.486;2022-11-09T09:10:49;14.03;;;13.43;;
18138;SDS011;9195;53.176;9.486;2022-11-09T09:13:15;14.13;;;13.53;;
18138;SDS011;9195;53.176;9.486;2022-11-09T09:15:43;14.20;;;13.60;;
18138;SDS011;9195;53.176;9.486;2022-11-09T09:18:08;14.77;;;14.07;;
18138;SDS011;9195;53.176;9.486;2022-11-09T09:20:34;14.37;;;13.77;;
18138;SDS011;9195;53.176;9.486;2022-11-09T09:23:00;14.37;;;13.77;;
18138;SDS011;9195;53.176;9.486;2022-11-09T09:25:26;13.87;;;13.27;;
18138;SDS011;9195;53.176;9.486;2022-11-09T09:27:51;14.20;;;13.60;;
18138;SDS011;9195;53.176;9.486;2022-11-09T09:30:17;14.00;;;13.40;;
18138;SDS011;9195;53.176;9.486;2022-11-09T09:32:43;13.80;;;13.20;;
18138;SDS011;9195;53.176;9.486;2022-11-09T09:35:08;14.17;;;13.57;;
18138;SDS011;9195;53.176;9.486;2022-11-09T09:37:35;14.10;;;13.50;;
18138;SDS011;9195;53.176;9.486;2022-11-09T09:40:01;14.10;;;13.50;;
18138;SDS011;9195;53.176;9.486;2022-11-09T09:42:39;14.87;;;14.17;;
18138;SDS011;9195;53.176;9.486;2022-11-09T09:45:11;14.00;;;13.40;;
18138;SDS011;9195;53.176;9.486;2022-11-09T09:53:30;14.03;;;13.43;;
18138;SDS011;9195;53.176;9.486;2022-11-09T09:56:03;14.50;;;13.83;;
18138;SDS011;9195;53.176;9.486;2022-11-09T09:58:36;14.67;;;13.97;;
18138;SDS011;9195;53.176;9.486;2022-11-09T10:01:14;14.33;;;13.73;;
18138;SDS011;9195;53.176;9.486;2022-11-09T10:03:44;14.33;;;13.70;;
18138;SDS011;9195;53.176;9.486;2022-11-09T10:12:04;14.53;;;13.83;;
18138;SDS011;9195;53.176;9.486;2022-11-09T10:18:08;15.03;;;14.33;;
18138;SDS011;9195;53.176;9.486;2022-11-09T10:26:12;14.47;;;13.80;;
18138;SDS011;9195;53.176;9.486;2022-11-09T10:28:42;14.50;;;13.90;;
18138;SDS011;9195;53.176;9.486;2022-11-09T10:31:13;13.70;;;13.10;;
18138;SDS011;9195;53.176;9.486;2022-11-09T10:33:43;14.00;;;13.40;;
18138;SDS011;9195;53.176;9.486;2022-11-09T10:36:15;14.00;;;13.40;;
18138;SDS011;9195;53.176;9.486;2022-11-09T10:38:48;13.33;;;12.73;;
18138;SDS011;9195;53.176;9.486;2022-11-09T10:43:48;14.47;;;13.87;;
18138;SDS011;9195;53.176;9.486;2022-11-09T10:46:13;14.27;;;13.67;;
18138;SDS011;9195;53.176;9.486;2022-11-09T10:48:39;14.60;;;14.00;;
18138;SDS011;9195;53.176;9.486;2022-11-09T10:51:05;14.33;;;13.73;;
18138;SDS011;9195;53.176;9.486;2022-11-09T10:54:13;14.47;;;13.87;;
18138;SDS011;9195;53.176;9.486;2022-11-09T10:56:42;14.50;;;13.90;;
18138;SDS011;9195;53.176;9.486;2022-11-09T11:02:35;14.60;;;14.00;;
18138;SDS011;9195;53.176;9.486;2022-11-09T11:07:30;15.03;;;14.33;;
18138;SDS011;9195;53.176;9.486;2022-11-09T11:10:39;14.50;;;13.90;;
18138;SDS011;9195;53.176;9.486;2022-11-09T11:18:02;15.00;;;14.30;;
18138;SDS011;9195;53.176;9.486;2022-11-09T11:20:35;14.73;;;14.13;;
18138;SDS011;9195;53.176;9.486;2022-11-09T11:30:51;15.30;;;14.60;;
18138;SDS011;9195;53.176;9.486;2022-11-09T11:33:17;16.40;;;15.70;;
18138;SDS011;9195;53.176;9.486;2022-11-09T11:38:18;15.30;;;14.60;;
18138;SDS011;9195;53.176;9.486;2022-11-09T11:52:13;15.63;;;14.93;;
18138;SDS011;9195;53.176;9.486;2022-11-09T12:08:24;15.20;;;14.50;;
18138;SDS011;9195;53.176;9.486;2022-11-09T12:11:20;14.93;;;14.23;;
18138;SDS011;9195;53.176;9.486;2022-11-09T12:14:00;14.90;;;14.20;;
18138;SDS011;9195;53.176;9.486;2022-11-09T12:19:33;15.70;;;15.00;;
18138;SDS011;9195;53.176;9.486;2022-11-09T12:22:31;14.97;;;14.27;;
18138;SDS011;9195;53.176;9.486;2022-11-09T12:25:20;15.13;;;14.43;;
18138;SDS011;9195;53.176;9.486;2022-11-09T12:30:38;15.40;;;14.70;;
18138;SDS011;9195;53.176;9.486;2022-11-09T12:35:55;15.90;;;15.20;;
18138;SDS011;9195;53.176;9.486;2022-11-09T12:38:32;15.60;;;14.90;;
18138;SDS011;9195;53.176;9.486;2022-11-09T12:41:09;15.57;;;14.87;;
18138;SDS011;9195;53.176;9.486;2022-11-09T12:43:48;15.60;;;14.90;;
18138;SDS011;9195;53.176;9.486;2022-11-09T12:46:14;15.40;;;14.70;;
18138;SDS011;9195;53.176;9.486;2022-11-09T12:48:42;15.10;;;14.40;;
18138;SDS011;9195;53.176;9.486;2022-11-09T12:51:11;15.30;;;14.60;;
18138;SDS011;9195;53.176;9.486;2022-11-09T12:53:38;15.10;;;14.40;;
18138;SDS011;9195;53.176;9.486;2022-11-09T12:56:21;15.30;;;14.60;;
18138;SDS011;9195;53.176;9.486;2022-11-09T12:58:49;14.10;;;13.50;;
18138;SDS011;9195;53.176;9.486;2022-11-09T13:03:54;14.63;;;13.93;;
18138;SDS011;9195;53.176;9.486;2022-11-09T13:09:33;15.00;;;14.30;;
18138;SDS011;9195;53.176;9.486;2022-11-09T13:11:41;14.70;;;14.00;;
18138;SDS011;9195;53.176;9.486;2022-11-09T13:14:32;14.63;;;13.93;;
18138;SDS011;9195;53.176;9.486;2022-11-09T13:17:52;15.20;;;14.50;;
18138;SDS011;9195;53.176;9.486;2022-11-09T13:19:53;15.03;;;14.33;;
18138;SDS011;9195;53.176;9.486;2022-11-09T13:24:57;14.97;;;14.27;;
18138;SDS011;9195;53.176;9.486;2022-11-09T13:38:15;15.10;;;14.40;;
18138;SDS011;9195;53.176;9.486;2022-11-09T13:40:43;14.70;;;14.00;;
18138;SDS011;9195;53.176;9.486;2022-11-09T13:48:01;14.97;;;14.27;;
18138;SDS011;9195;53.176;9.486;2022-11-09T13:50:29;14.83;;;14.13;;
18138;SDS011;9195;53.176;9.486;2022-11-09T13:52:56;14.20;;;13.60;;
18138;SDS011;9195;53.176;9.486;2022-11-09T13:55:40;14.27;;;13.67;;
18138;SDS011;9195;53.176;9.486;2022-11-09T13:58:17;14.17;;;13.57;;
18138;SDS011;9195;53.176;9.486;2022-11-09T14:00:58;13.97;;;13.37;;
18138;SDS011;9195;53.176;9.486;2022-11-09T14:03:28;14.17;;;13.57;;
18138;SDS011;9195;53.176;9.486;2022-11-09T14:05:57;13.37;;;12.77;;
18138;SDS011;9195;53.176;9.486;2022-11-09T14:08:43;13.97;;;13.37;;
18138;SDS011;9195;53.176;9.486;2022-11-09T14:13:55;13.70;;;13.10;;
18138;SDS011;9195;53.176;9.486;2022-11-09T14:16:27;13.70;;;13.10;;
18138;SDS011;9195;53.176;9.486;2022-11-09T14:21:52;13.57;;;12.97;;
18138;SDS011;9195;53.176;9.486;2022-11-09T14:29:34;13.03;;;12.43;;
18138;SDS011;9195;53.176;9.486;2022-11-09T14:34:48;12.90;;;12.30;;
18138;SDS011;9195;53.176;9.486;2022-11-09T14:37:14;13.20;;;12.60;;
18138;SDS011;9195;53.176;9.486;2022-11-09T14:39:40;12.53;;;12.03;;
18138;SDS011;9195;53.176;9.486;2022-11-09T14:42:06;12.97;;;12.37;;
18138;SDS011;9195;53.176;9.486;2022-11-09T14:44:36;12.50;;;12.00;;
18138;SDS011;9195;53.176;9.486;2022-11-09T14:47:11;12.23;;;11.73;;
18138;SDS011;9195;53.176;9.486;2022-11-09T14:50:05;12.40;;;11.90;;
18138;SDS011;9195;53.176;9.486;2022-11-09T14:52:38;12.10;;;11.60;;
18138;SDS011;9195;53.176;9.486;2022-11-09T14:55:04;12.73;;;12.20;;
18138;SDS011;9195;53.176;9.486;2022-11-09T14:57:30;12.40;;;11.90;;
18138;SDS011;9195;53.176;9.486;2022-11-09T14:59:56;12.50;;;12.00;;
18138;SDS011;9195;53.176;9.486;2022-11-09T15:02:22;12.50;;;12.00;;
18138;SDS011;9195;53.176;9.486;2022-11-09T15:04:52;12.13;;;11.63;;
18138;SDS011;9195;53.176;9.486;2022-11-09T15:07:32;12.33;;;11.83;;
18138;SDS011;9195;53.176;9.486;2022-11-09T15:10:00;12.40;;;11.90;;
18138;SDS011;9195;53.176;9.486;2022-11-09T15:12:46;12.40;;;11.90;;
18138;SDS011;9195;53.176;9.486;2022-11-09T15:15:21;12.60;;;12.10;;
18138;SDS011;9195;53.176;9.486;2022-11-09T15:17:49;12.57;;;12.07;;
18138;SDS011;9195;53.176;9.486;2022-11-09T15:25:23;12.10;;;11.60;;
18138;SDS011;9195;53.176;9.486;2022-11-09T15:30:39;12.47;;;11.97;;
18138;SDS011;9195;53.176;9.486;2022-11-09T15:35:51;12.20;;;11.70;;
18138;SDS011;9195;53.176;9.486;2022-11-09T15:38:40;12.30;;;11.80;;
18138;SDS011;9195;53.176;9.486;2022-11-09T15:41:12;12.40;;;11.90;;
18138;SDS011;9195;53.176;9.486;2022-11-09T15:43:40;11.90;;;11.40;;
18138;SDS011;9195;53.176;9.486;2022-11-09T15:46:09;11.90;;;11.40;;
18138;SDS011;9195;53.176;9.486;2022-11-09T15:48:40;11.90;;;11.40;;
18138;SDS011;9195;53.176;9.486;2022-11-09T15:51:06;11.87;;;11.37;;
18138;SDS011;9195;53.176;9.486;2022-11-09T15:53:31;11.80;;;11.30;;
18138;SDS011;9195;53.176;9.486;2022-11-09T15:55:57;11.80;;;11.30;;
18138;SDS011;9195;53.176;9.486;2022-11-09T15:58:24;12.40;;;11.90;;
18138;SDS011;9195;53.176;9.486;2022-11-09T16:00:49;11.60;;;11.10;;
18138;SDS011;9195;53.176;9.486;2022-11-09T16:03:15;12.07;;;11.57;;
18138;SDS011;9195;53.176;9.486;2022-11-09T16:05:42;11.93;;;11.43;;
18138;SDS011;9195;53.176;9.486;2022-11-09T16:08:09;11.70;;;11.20;;
18138;SDS011;9195;53.176;9.486;2022-11-09T16:10:34;11.73;;;11.23;;
18138;SDS011;9195;53.176;9.486;2022-11-09T16:13:01;11.60;;;11.10;;
18138;SDS011;9195;53.176;9.486;2022-11-09T16:15:29;11.80;;;11.30;;
18138;SDS011;9195;53.176;9.486;2022-11-09T16:17:55;11.67;;;11.17;;
18138;SDS011;9195;53.176;9.486;2022-11-09T16:20:21;11.83;;;11.33;;
18138;SDS011;9195;53.176;9.486;2022-11-09T16:22:47;11.27;;;10.77;;
18138;SDS011;9195;53.176;9.486;2022-11-09T16:25:12;11.30;;;10.80;;
18138;SDS011;9195;53.176;9.486;2022-11-09T16:27:39;10.80;;;10.40;;
18138;SDS011;9195;53.176;9.486;2022-11-09T16:30:05;10.73;;;10.33;;
18138;SDS011;9195;53.176;9.486;2022-11-09T16:32:33;10.90;;;10.47;;
18138;SDS011;9195;53.176;9.486;2022-11-09T16:34:59;11.20;;;10.70;;
18138;SDS011;9195;53.176;9.486;2022-11-09T16:37:25;10.70;;;10.30;;
18138;SDS011;9195;53.176;9.486;2022-11-09T16:39:56;11.13;;;10.63;;
18138;SDS011;9195;53.176;9.486;2022-11-09T16:42:23;10.40;;;10.00;;
18138;SDS011;9195;53.176;9.486;2022-11-09T16:44:50;10.60;;;10.20;;
18138;SDS011;9195;53.176;9.486;2022-11-09T16:47:16;11.43;;;10.93;;
18138;SDS011;9195;53.176;9.486;2022-11-09T16:49:43;11.40;;;10.90;;
18138;SDS011;9195;53.176;9.486;2022-11-09T16:52:09;10.67;;;10.27;;
18138;SDS011;9195;53.176;9.486;2022-11-09T16:54:35;10.17;;;9.77;;
18138;SDS011;9195;53.176;9.486;2022-11-09T16:57:01;9.87;;;9.47;;
18138;SDS011;9195;53.176;9.486;2022-11-09T16:59:27;10.10;;;9.70;;
18138;SDS011;9195;53.176;9.486;2022-11-09T17:01:54;9.20;;;8.80;;